createdAt,value
2022-07-29T00:02:33.439Z,1.40
2022-07-29T00:07:55.704Z,3.95
2022-07-29T00:13:17.504Z,0.88
2022-07-29T00:18:40.546Z,0.88
2022-07-29T00:24:02.394Z,0.70
2022-07-29T00:29:33.925Z,0.68
2022-07-29T00:35:14.932Z,1.80
2022-07-29T00:40:36.722Z,1.50
2022-07-29T00:46:01.581Z,2.42
2022-07-29T00:51:23.402Z,0.50
2022-07-29T00:56:45.443Z,3.55
2022-07-29T01:02:07.281Z,0.77
2022-07-29T01:07:31.340Z,0.95
2022-07-29T01:12:55.464Z,0.40
2022-07-29T01:18:29.572Z,0.85
2022-07-29T01:24:07.500Z,2.03
2022-07-29T01:29:40.489Z,0.65
2022-07-29T01:35:11.765Z,0.40
2022-07-29T01:40:39.390Z,1.30
2022-07-29T01:46:11.589Z,0.30
2022-07-29T01:52:08.755Z,0.93
2022-07-29T01:57:34.821Z,1.88
2022-07-29T02:02:59.061Z,1.95
2022-07-29T02:08:22.865Z,1.23
2022-07-29T02:13:46.951Z,1.75
2022-07-29T02:19:10.334Z,0.88
2022-07-29T02:24:32.981Z,0.50
2022-07-29T02:29:56.789Z,0.60
2022-07-29T02:35:20.976Z,1.75
2022-07-29T02:40:44.427Z,2.42
2022-07-29T02:46:12.803Z,1.25
2022-07-29T02:52:01.611Z,1.70
2022-07-29T02:57:32.987Z,3.33
2022-07-29T03:02:57.270Z,0.80
2022-07-29T03:08:21.955Z,2.20
2022-07-29T03:13:44.066Z,3.27
2022-07-29T03:19:06.460Z,4.30
2022-07-29T03:24:33.990Z,2.42
2022-07-29T03:29:56.107Z,1.35
2022-07-29T03:35:18.637Z,3.10
2022-07-29T03:40:52.700Z,1.90
2022-07-29T03:46:18.645Z,3.55
2022-07-29T03:51:41.130Z,0.93
2022-07-29T03:57:04.171Z,2.55
2022-07-29T04:02:30.517Z,3.38
2022-07-29T04:07:54.613Z,3.00
2022-07-29T04:13:16.397Z,2.28
2022-07-29T04:18:38.126Z,3.22
2022-07-29T04:24:00.565Z,1.85
2022-07-29T04:29:22.342Z,4.07
2022-07-29T04:34:44.076Z,1.85
2022-07-29T04:40:06.565Z,2.10
2022-07-29T04:45:29.069Z,3.08
2022-07-29T04:50:50.880Z,1.40
2022-07-29T04:56:12.654Z,1.63
2022-07-29T05:01:34.445Z,0.80
2022-07-29T05:06:56.371Z,1.05
2022-07-29T05:12:18.172Z,1.50
2022-07-29T05:17:40.149Z,2.30
2022-07-29T05:23:02.726Z,1.80
2022-07-29T05:28:24.456Z,12.60
2022-07-29T05:33:46.834Z,4.15
2022-07-29T05:39:08.649Z,3.08
2022-07-29T05:44:30.423Z,7.90
2022-07-29T05:49:52.276Z,1.67
2022-07-29T05:55:14.116Z,8.32
2022-07-29T06:00:35.844Z,6.95
2022-07-29T06:05:57.587Z,3.17
2022-07-29T06:11:19.406Z,4.88
2022-07-29T06:16:41.217Z,2.15
2022-07-29T06:22:03.340Z,3.40
2022-07-29T06:27:25.085Z,3.22
2022-07-29T06:32:46.859Z,6.18
2022-07-29T06:38:25.105Z,1.75
2022-07-29T06:43:55.330Z,2.88
2022-07-29T06:49:18.771Z,2.97
2022-07-29T06:54:41.043Z,6.63
2022-07-29T07:00:05.701Z,3.90
2022-07-29T07:05:27.419Z,1.60
2022-07-29T07:10:52.038Z,2.47
2022-07-29T07:16:13.877Z,4.63
2022-07-29T07:21:36.049Z,4.18
2022-07-29T07:26:57.890Z,2.17
2022-07-29T07:32:19.662Z,4.47
2022-07-29T07:37:41.883Z,2.72
2022-07-29T07:43:03.910Z,2.55
2022-07-29T07:48:25.722Z,1.88
2022-07-29T07:53:51.461Z,2.08
2022-07-29T07:59:13.179Z,2.35
2022-07-29T08:04:35.140Z,1.00
2022-07-29T08:09:56.866Z,0.52
2022-07-29T08:15:18.579Z,1.38
2022-07-29T08:20:40.986Z,2.83
2022-07-29T08:26:02.742Z,1.15
2022-07-29T08:31:24.704Z,0.40
2022-07-29T08:36:50.283Z,0.73
2022-07-29T08:42:13.314Z,1.73
2022-07-29T08:47:37.952Z,1.63
2022-07-29T08:53:00.255Z,0.93
2022-07-29T08:58:24.512Z,0.82
2022-07-29T09:03:47.431Z,1.30
2022-07-29T09:09:10.481Z,0.85
2022-07-29T09:14:32.267Z,4.53
2022-07-29T09:20:09.732Z,0.80
2022-07-29T09:25:38.927Z,3.03
2022-07-29T09:31:00.687Z,1.13
2022-07-29T09:36:22.909Z,1.20
2022-07-29T09:41:55.381Z,1.77
2022-07-29T09:47:19.194Z,0.90
2022-07-29T09:52:51.999Z,2.28
2022-07-29T09:58:21.867Z,1.00
2022-07-29T10:03:54.202Z,0.40
2022-07-29T10:09:17.190Z,0.50
2022-07-29T10:14:44.091Z,1.40
2022-07-29T10:20:06.448Z,0.70
2022-07-29T10:25:34.741Z,0.63
2022-07-29T10:31:03.013Z,1.23
2022-07-29T10:36:43.895Z,1.40
2022-07-29T10:42:16.920Z,1.05
2022-07-29T10:47:42.606Z,0.50
2022-07-29T10:53:05.041Z,0.65
2022-07-29T10:58:30.825Z,1.25
2022-07-29T11:03:57.201Z,2.60
2022-07-29T11:09:25.733Z,0.60
2022-07-29T11:15:01.311Z,1.48
2022-07-29T11:20:32.099Z,1.33
2022-07-29T11:26:12.769Z,0.50
2022-07-29T11:31:34.614Z,1.25
2022-07-29T11:37:08.527Z,1.38
2022-07-29T11:42:34.188Z,2.10
2022-07-29T11:48:29.467Z,1.92
2022-07-29T11:53:48.620Z,0.60
2022-07-29T11:59:15.509Z,1.45
2022-07-29T12:04:53.953Z,2.53
2022-07-29T12:10:20.201Z,1.70
2022-07-29T12:15:55.870Z,3.42
2022-07-29T12:21:25.740Z,1.30
2022-07-29T12:26:54.928Z,1.48
2022-07-29T12:32:19.786Z,0.85
2022-07-29T12:37:43.360Z,3.97
2022-07-29T12:43:13.145Z,2.78
2022-07-29T12:48:40.365Z,2.85
2022-07-29T12:54:12.032Z,1.90
2022-07-29T12:59:33.776Z,1.10
2022-07-29T13:05:06.414Z,3.25
2022-07-29T13:10:30.486Z,1.63
2022-07-29T13:16:08.995Z,1.55
2022-07-29T13:21:30.751Z,3.05
2022-07-29T13:26:52.995Z,1.85
2022-07-29T13:32:15.230Z,2.08
2022-07-29T13:37:39.702Z,2.10
2022-07-29T13:43:01.576Z,3.30
2022-07-29T13:48:23.428Z,3.70
2022-07-29T13:53:45.273Z,1.73
2022-07-29T13:59:07.074Z,0.77
2022-07-29T14:04:29.064Z,3.45
2022-07-29T14:09:51.373Z,3.42
2022-07-29T14:15:13.101Z,1.38
2022-07-29T14:20:34.882Z,4.28
2022-07-29T14:25:56.655Z,9.25
2022-07-29T14:31:18.754Z,3.38
2022-07-29T14:36:40.726Z,12.73
2022-07-29T14:42:02.514Z,30.25
2022-07-29T14:47:24.543Z,74.50
2022-07-29T14:52:46.309Z,71.47
2022-07-29T14:58:11.084Z,38.40
2022-07-29T15:03:36.470Z,29.65
2022-07-29T15:08:58.296Z,30.75
2022-07-29T15:14:20.021Z,19.98
2022-07-29T15:19:45.103Z,10.40
2022-07-29T15:25:07.320Z,13.82
2022-07-29T15:30:33.175Z,9.95
2022-07-29T15:35:57.170Z,6.10
2022-07-29T15:41:18.934Z,8.27
2022-07-29T15:47:00.099Z,4.85
2022-07-29T15:52:26.181Z,7.57
2022-07-29T15:57:48.218Z,3.88
2022-07-29T16:03:10.156Z,5.38
2022-07-29T16:08:31.973Z,5.30
2022-07-29T16:13:53.734Z,9.07
2022-07-29T16:19:15.699Z,4.30
2022-07-29T16:24:37.588Z,4.28
2022-07-29T16:29:59.307Z,6.18
2022-07-29T16:35:23.717Z,8.97
2022-07-29T16:41:01.056Z,5.93
2022-07-29T16:46:22.885Z,3.85
2022-07-29T16:51:50.731Z,2.72
2022-07-29T16:57:12.545Z,6.40
2022-07-29T17:02:34.286Z,6.75
2022-07-29T17:07:57.691Z,7.07
2022-07-29T17:13:21.130Z,2.55
2022-07-29T17:18:43.162Z,2.95
2022-07-29T17:24:05.469Z,3.10
2022-07-29T17:29:27.625Z,4.78
2022-07-29T17:34:49.399Z,3.65
2022-07-29T17:40:11.653Z,5.47
2022-07-29T17:45:48.737Z,4.20
2022-07-29T17:51:12.309Z,5.82
2022-07-29T17:56:34.085Z,4.63
2022-07-29T18:01:55.901Z,2.50
2022-07-29T18:07:17.837Z,6.32
2022-07-29T18:12:39.546Z,4.55
2022-07-29T18:18:01.271Z,3.13
2022-07-29T18:23:22.998Z,3.95
2022-07-29T18:28:44.801Z,2.95
2022-07-29T18:34:06.604Z,3.53
2022-07-29T18:39:28.325Z,3.58
2022-07-29T18:44:50.031Z,6.35
2022-07-29T18:50:12.053Z,9.30
2022-07-29T18:55:34.028Z,5.43
2022-07-29T19:00:58.089Z,3.35
2022-07-29T19:06:25.625Z,6.28
2022-07-29T19:11:47.805Z,6.07
2022-07-29T19:17:09.638Z,7.07
2022-07-29T19:22:31.372Z,15.75
2022-07-29T19:27:53.118Z,7.78
2022-07-29T19:33:17.698Z,12.27
2022-07-29T19:38:39.735Z,9.10
2022-07-29T19:44:01.631Z,4.55
2022-07-29T19:49:23.453Z,4.03
2022-07-29T19:54:45.278Z,11.07
2022-07-29T20:00:07.997Z,16.52
2022-07-29T20:05:32.951Z,4.47
2022-07-29T20:10:55.246Z,8.25
2022-07-29T20:16:17.043Z,15.45
2022-07-29T20:21:38.852Z,21.85
2022-07-29T20:27:01.630Z,19.73
2022-07-29T20:32:23.611Z,17.23
2022-07-29T20:37:56.322Z,14.98
2022-07-29T20:43:18.365Z,9.90
2022-07-29T20:48:41.005Z,8.10
2022-07-29T20:54:03.593Z,8.48
2022-07-29T20:59:25.380Z,6.78
2022-07-29T21:04:47.102Z,5.93
2022-07-29T21:10:08.965Z,5.45
2022-07-29T21:15:31.077Z,3.47
2022-07-29T21:20:54.500Z,7.70
2022-07-29T21:26:16.290Z,3.83
2022-07-29T21:31:38.085Z,3.63
2022-07-29T21:37:00.062Z,3.40
2022-07-29T21:42:22.204Z,3.13
2022-07-29T21:47:44.289Z,2.00
2022-07-29T21:53:06.156Z,2.97
2022-07-29T21:58:27.869Z,1.75
2022-07-29T22:03:49.634Z,1.20
2022-07-29T22:09:11.559Z,4.57
2022-07-29T22:14:36.115Z,2.13
2022-07-29T22:19:58.835Z,1.67
2022-07-29T22:25:20.930Z,2.80
2022-07-29T22:30:42.763Z,1.50
2022-07-29T22:36:04.961Z,1.65
2022-07-29T22:41:27.123Z,1.75
2022-07-29T22:46:48.955Z,3.78
2022-07-29T22:52:10.879Z,3.25
2022-07-29T22:57:32.685Z,0.98
2022-07-29T23:02:54.412Z,0.93
2022-07-29T23:08:16.272Z,1.65
2022-07-29T23:13:38.062Z,0.85
2022-07-29T23:18:59.958Z,1.45
2022-07-29T23:24:21.702Z,1.13
2022-07-29T23:29:43.450Z,2.13
2022-07-29T23:35:07.140Z,1.35
2022-07-29T23:40:28.891Z,1.77
2022-07-29T23:45:50.787Z,0.60
2022-07-29T23:51:15.527Z,3.80
2022-07-29T23:56:37.295Z,1.33
